createdAt,value
2022-10-22T00:01:36.533Z,100509.78
2022-10-22T00:04:04.338Z,100507.16
2022-10-22T00:06:32.004Z,100516.72
2022-10-22T00:08:59.797Z,100515.94
2022-10-22T00:11:27.672Z,100520.13
2022-10-22T00:13:55.388Z,100521.03
2022-10-22T00:16:23.056Z,100523.59
2022-10-22T00:18:52.122Z,100528.78
2022-10-22T00:21:19.887Z,100526.03
2022-10-22T00:23:47.597Z,100531.22
2022-10-22T00:26:15.554Z,100533.00
2022-10-22T00:28:43.283Z,100539.94
2022-10-22T00:31:11.051Z,100542.44
2022-10-22T00:33:38.775Z,100548.50
2022-10-22T00:36:08.843Z,100541.53
2022-10-22T00:38:36.703Z,100546.72
2022-10-22T00:41:04.398Z,100550.03
2022-10-22T00:43:32.188Z,100554.38
2022-10-22T00:45:59.885Z,100555.28
2022-10-22T00:48:31.012Z,100547.63
2022-10-22T00:51:02.254Z,100560.53
2022-10-22T00:53:34.293Z,100545.19
2022-10-22T00:56:02.267Z,100538.13
2022-10-22T00:58:35.780Z,100521.03
2022-10-22T01:01:04.347Z,100550.84
2022-10-22T01:03:33.244Z,100539.41
2022-10-22T01:06:02.882Z,100530.88
2022-10-22T01:08:40.178Z,100532.47
2022-10-22T01:11:19.600Z,100544.66
2022-10-22T01:13:53.411Z,100528.91
2022-10-22T01:16:28.634Z,100541.00
2022-10-22T01:19:03.983Z,100545.34
2022-10-22T01:21:35.775Z,100529.19
2022-10-22T01:24:35.363Z,100537.59
2022-10-22T01:27:16.424Z,100532.47
2022-10-22T01:29:49.371Z,100539.53
2022-10-22T01:32:20.230Z,100535.94
2022-10-22T01:34:53.242Z,100534.16
2022-10-22T01:37:25.314Z,100513.72
2022-10-22T01:39:54.099Z,100542.97
2022-10-22T01:42:21.792Z,100529.19
2022-10-22T01:44:51.110Z,100537.72
2022-10-22T01:47:28.777Z,100499.13
2022-10-22T01:50:36.752Z,100543.63
2022-10-22T01:53:19.017Z,100542.84
2022-10-22T01:55:57.660Z,100538.38
2022-10-22T01:58:36.175Z,100539.28
2022-10-22T02:01:10.402Z,100541.00
2022-10-22T02:03:46.231Z,100540.22
2022-10-22T02:06:21.762Z,100546.25
2022-10-22T02:08:51.363Z,100540.22
2022-10-22T02:11:19.206Z,100547.03
2022-10-22T02:13:50.002Z,100545.41
2022-10-22T02:16:25.522Z,100535.88
2022-10-22T02:18:56.685Z,100537.59
2022-10-22T02:21:24.900Z,100539.16
2022-10-22T02:23:52.670Z,100541.84
2022-10-22T02:26:26.116Z,100539.22
2022-10-22T02:29:00.483Z,100539.03
2022-10-22T02:31:32.940Z,100536.34
2022-10-22T02:34:07.936Z,100544.13
2022-10-22T02:36:36.243Z,100540.59
2022-10-22T02:39:04.686Z,100457.81
2022-10-22T02:41:32.737Z,100543.22
2022-10-22T02:44:02.172Z,100543.28
2022-10-22T02:46:31.247Z,100544.97
2022-10-22T02:48:58.922Z,100554.38
2022-10-22T02:51:26.636Z,100567.44
2022-10-22T02:53:54.337Z,100547.03
2022-10-22T02:56:22.054Z,100568.41
2022-10-22T02:58:49.717Z,100566.59
2022-10-22T03:01:17.440Z,100559.50
2022-10-22T03:03:46.552Z,100561.34
2022-10-22T03:06:14.450Z,100560.53
2022-10-22T03:08:42.703Z,100539.53
2022-10-22T03:11:10.546Z,100579.78
2022-10-22T03:13:39.240Z,100582.47
2022-10-22T03:16:07.563Z,100590.22
2022-10-22T03:18:35.374Z,100587.59
2022-10-22T03:21:10.918Z,100581.44
2022-10-22T03:23:41.425Z,100588.25
2022-10-22T03:26:10.142Z,100599.56
2022-10-22T03:28:39.409Z,100590.16
2022-10-22T03:31:07.585Z,100597.69
2022-10-22T03:33:35.410Z,100606.34
2022-10-22T03:36:04.983Z,100593.63
2022-10-22T03:38:32.743Z,100602.94
2022-10-22T03:41:00.478Z,100604.53
2022-10-22T03:43:28.629Z,100599.41
2022-10-22T03:45:56.418Z,100601.97
2022-10-22T03:48:24.266Z,100593.28
2022-10-22T03:50:52.040Z,100597.50
2022-10-22T03:53:21.096Z,100529.31
2022-10-22T03:55:48.760Z,100598.34
2022-10-22T03:58:16.492Z,100594.06
2022-10-22T04:00:44.316Z,100500.03
2022-10-22T04:03:12.023Z,100588.75
2022-10-22T04:05:39.676Z,100582.59
2022-10-22T04:08:07.376Z,100586.25
2022-10-22T04:10:36.720Z,100584.56
2022-10-22T04:13:04.447Z,100593.44
2022-10-22T04:15:33.080Z,100595.34
2022-10-22T04:18:00.776Z,100594.44
2022-10-22T04:20:28.457Z,100587.84
2022-10-22T04:22:56.422Z,100592.00
2022-10-22T04:25:24.118Z,100598.09
2022-10-22T04:27:53.160Z,100594.69
2022-10-22T04:30:20.813Z,100598.22
2022-10-22T04:32:48.513Z,100610.56
2022-10-22T04:35:16.564Z,100603.47
2022-10-22T04:37:44.290Z,100602.75
2022-10-22T04:40:13.289Z,100600.47
2022-10-22T04:42:40.963Z,100607.44
2022-10-22T04:45:11.345Z,100609.38
2022-10-22T04:47:39.243Z,100619.16
2022-10-22T04:50:08.187Z,100618.56
2022-10-22T04:52:35.879Z,100624.91
2022-10-22T04:55:03.610Z,100622.22
2022-10-22T04:57:31.950Z,100624.06
2022-10-22T04:59:59.707Z,100626.81
2022-10-22T05:02:28.832Z,100629.31
2022-10-22T05:04:56.559Z,100623.09
2022-10-22T05:07:24.576Z,100623.38
2022-10-22T05:09:52.337Z,100618.75
2022-10-22T05:12:20.068Z,100621.50
2022-10-22T05:14:47.753Z,100618.94
2022-10-22T05:17:15.463Z,100616.97
2022-10-22T05:19:44.644Z,100604.91
2022-10-22T05:22:12.314Z,100612.59
2022-10-22T05:24:40.247Z,100603.72
2022-10-22T05:27:08.010Z,100603.00
2022-10-22T05:29:35.826Z,100597.94
2022-10-22T05:32:05.222Z,100603.19
2022-10-22T05:34:33.373Z,100601.53
2022-10-22T05:37:02.493Z,100597.34
2022-10-22T05:39:30.426Z,100598.44
2022-10-22T05:41:58.533Z,100594.06
2022-10-22T05:44:26.240Z,100591.56
2022-10-22T05:46:53.945Z,100602.22
2022-10-22T05:49:21.743Z,100592.84
2022-10-22T05:51:49.468Z,100603.13
2022-10-22T05:54:22.149Z,100602.38
2022-10-22T05:56:50.270Z,100611.28
2022-10-22T05:59:17.981Z,100616.53
2022-10-22T06:01:45.917Z,100589.31
2022-10-22T06:04:16.101Z,100621.94
2022-10-22T06:06:46.107Z,100589.31
2022-10-22T06:09:17.631Z,100622.28
2022-10-22T06:11:47.585Z,100625.44
2022-10-22T06:14:16.192Z,100627.03
2022-10-22T06:16:43.989Z,100636.59
2022-10-22T06:19:16.428Z,100633.06
2022-10-22T06:21:44.861Z,100635.69
2022-10-22T06:24:13.084Z,100590.91
2022-10-22T06:26:41.111Z,100631.97
2022-10-22T06:29:10.634Z,100638.88
2022-10-22T06:31:38.361Z,100650.06
2022-10-22T06:34:07.030Z,100642.03
2022-10-22T06:36:35.470Z,100649.72
2022-10-22T06:39:04.158Z,100643.97
2022-10-22T06:41:32.183Z,100651.78
2022-10-22T06:44:02.834Z,100660.69
2022-10-22T06:46:32.765Z,100659.63
2022-10-22T06:49:02.497Z,100662.94
2022-10-22T06:51:31.143Z,100662.78
2022-10-22T06:53:59.706Z,100663.63
2022-10-22T06:56:29.063Z,100658.13
2022-10-22T06:58:58.191Z,100659.72
2022-10-22T07:01:27.708Z,100665.69
2022-10-22T07:03:57.361Z,100660.50
2022-10-22T07:06:26.657Z,100676.94
2022-10-22T07:08:55.334Z,100662.91
2022-10-22T07:11:25.578Z,100669.00
2022-10-22T07:13:55.446Z,100620.75
2022-10-22T07:16:25.721Z,100669.47
2022-10-22T07:18:57.284Z,100684.72
2022-10-22T07:21:26.149Z,100687.91
2022-10-22T07:23:54.055Z,100687.03
2022-10-22T07:26:22.064Z,100686.88
2022-10-22T07:28:49.769Z,100686.44
2022-10-22T07:31:18.604Z,100683.00
2022-10-22T07:33:46.693Z,100644.53
2022-10-22T07:36:18.427Z,100692.88
2022-10-22T07:38:46.985Z,100698.63
2022-10-22T07:41:15.656Z,100699.41
2022-10-22T07:43:43.983Z,100699.47
2022-10-22T07:46:11.998Z,100704.59
2022-10-22T07:48:39.807Z,100615.50
2022-10-22T07:51:07.874Z,100708.28
2022-10-22T07:53:37.397Z,100676.63
2022-10-22T07:56:05.567Z,100701.72
2022-10-22T07:58:33.439Z,100707.44
2022-10-22T08:01:02.935Z,100701.59
2022-10-22T08:03:30.936Z,100711.47
2022-10-22T08:05:59.043Z,100692.09
2022-10-22T08:08:29.754Z,100705.41
2022-10-22T08:11:02.161Z,100666.78
2022-10-22T08:13:31.158Z,100708.91
2022-10-22T08:15:59.734Z,100691.09
2022-10-22T08:18:27.832Z,100694.63
2022-10-22T08:20:55.809Z,100717.09
2022-10-22T08:23:27.559Z,100709.59
2022-10-22T08:25:56.478Z,100646.94
2022-10-22T08:28:25.623Z,100687.91
2022-10-22T08:30:53.320Z,100685.34
2022-10-22T08:33:21.171Z,100686.69
2022-10-22T08:35:50.235Z,100708.19
2022-10-22T08:38:18.407Z,100704.31
2022-10-22T08:40:49.660Z,100690.50
2022-10-22T08:43:42.912Z,100709.28
2022-10-22T08:46:27.658Z,100715.47
2022-10-22T08:48:56.882Z,100703.47
2022-10-22T08:51:29.448Z,100722.09
2022-10-22T08:54:14.315Z,100705.66
2022-10-22T08:56:45.279Z,100730.19
2022-10-22T08:59:18.906Z,100725.97
2022-10-22T09:01:48.931Z,100692.47
2022-10-22T09:04:25.419Z,100713.91
2022-10-22T09:06:55.210Z,100716.78
2022-10-22T09:09:24.328Z,100719.66
2022-10-22T09:11:53.131Z,100708.50
2022-10-22T09:14:24.641Z,100733.06
2022-10-22T09:17:13.445Z,100732.94
2022-10-22T09:19:56.359Z,100666.69
2022-10-22T09:25:15.124Z,100736.44
2022-10-22T09:27:43.337Z,100725.06
2022-10-22T09:30:17.751Z,100727.25
2022-10-22T09:32:45.710Z,100711.03
2022-10-22T09:35:15.367Z,100721.25
2022-10-22T09:37:51.541Z,100727.13
2022-10-22T09:40:19.853Z,100737.81
2022-10-22T09:42:48.068Z,100736.78
2022-10-22T09:45:26.803Z,100740.75
2022-10-22T09:48:11.130Z,100743.25
2022-10-22T09:50:44.073Z,100742.88
2022-10-22T09:53:19.532Z,100740.13
2022-10-22T09:55:52.843Z,100744.06
2022-10-22T09:58:21.749Z,100724.69
2022-10-22T10:00:54.699Z,100755.63
2022-10-22T10:03:26.330Z,100755.53
2022-10-22T10:05:58.070Z,100748.94
2022-10-22T10:08:28.140Z,100756.22
2022-10-22T10:11:00.733Z,100749.13
2022-10-22T10:13:48.753Z,100736.19
2022-10-22T10:16:33.003Z,100702.84
2022-10-22T10:19:17.934Z,100749.41
2022-10-22T10:21:53.610Z,100750.94
2022-10-22T10:24:29.426Z,100743.72
2022-10-22T10:27:03.490Z,100748.16
2022-10-22T10:29:42.344Z,100726.63
2022-10-22T10:32:31.891Z,100750.66
2022-10-22T10:35:16.449Z,100673.00
2022-10-22T10:37:50.950Z,100744.53
2022-10-22T10:40:28.170Z,100729.19
2022-10-22T10:43:01.275Z,100732.88
2022-10-22T10:45:38.160Z,100736.78
2022-10-22T10:48:22.198Z,100728.38
2022-10-22T10:51:06.343Z,100731.94
2022-10-22T10:53:47.611Z,100740.03
2022-10-22T10:56:34.412Z,100689.88
2022-10-22T10:59:15.409Z,100741.94
2022-10-22T11:01:57.365Z,100686.41
2022-10-22T11:04:50.524Z,100738.00
2022-10-22T11:07:34.184Z,100723.59
2022-10-22T11:10:11.056Z,100707.63
2022-10-22T11:12:43.525Z,100741.84
2022-10-22T11:15:23.925Z,100730.72
2022-10-22T11:17:55.631Z,100739.94
2022-10-22T11:20:31.430Z,100701.91
2022-10-22T11:23:22.069Z,100729.25
2022-10-22T11:25:51.610Z,100682.78
2022-10-22T11:28:26.841Z,100719.47
2022-10-22T11:31:01.850Z,100704.34
2022-10-22T11:33:40.186Z,100697.72
2022-10-22T11:36:11.678Z,100709.56
2022-10-22T11:38:39.586Z,100710.28
2022-10-22T11:41:16.990Z,100712.94
2022-10-22T11:43:59.474Z,100710.16
2022-10-22T11:46:36.447Z,100692.22
2022-10-22T11:49:16.551Z,100699.44
2022-10-22T11:51:47.076Z,100668.22
2022-10-22T11:54:42.426Z,100690.75
2022-10-22T11:57:20.229Z,100708.47
2022-10-22T11:59:51.356Z,100703.81
2022-10-22T12:02:39.962Z,100703.19
2022-10-22T12:05:44.451Z,100698.19
2022-10-22T12:08:27.593Z,100683.84
2022-10-22T12:11:13.289Z,100708.56
2022-10-22T12:14:12.884Z,100669.38
2022-10-22T12:16:55.846Z,100633.75
2022-10-22T12:19:33.001Z,100663.94
2022-10-22T12:22:12.075Z,100658.69
2022-10-22T12:24:44.601Z,100642.41
2022-10-22T12:27:22.625Z,100683.19
2022-10-22T12:29:55.739Z,100679.91
2022-10-22T12:32:23.937Z,100669.72
2022-10-22T12:34:53.248Z,100683.16
2022-10-22T12:37:21.303Z,100675.44
2022-10-22T12:39:50.365Z,100682.47
2022-10-22T12:42:19.240Z,100678.53
2022-10-22T12:44:46.973Z,100680.25
2022-10-22T12:47:17.779Z,100683.34
2022-10-22T12:49:49.173Z,100685.41
2022-10-22T12:52:21.289Z,100684.66
2022-10-22T12:54:52.476Z,100676.88
2022-10-22T12:57:21.683Z,100655.50
2022-10-22T12:59:52.374Z,100667.31
2022-10-22T13:02:24.393Z,100674.84
2022-10-22T13:05:16.116Z,100675.81
2022-10-22T13:07:45.849Z,100673.91
2022-10-22T13:10:21.649Z,100678.78
2022-10-22T13:12:55.611Z,100681.22
2022-10-22T13:15:37.754Z,100676.25
2022-10-22T13:18:17.051Z,100684.16
2022-10-22T13:20:55.591Z,100681.59
2022-10-22T13:23:25.443Z,100675.81
2022-10-22T13:26:04.142Z,100660.56
2022-10-22T13:28:33.226Z,100689.13
2022-10-22T13:31:03.940Z,100695.16
2022-10-22T13:33:36.579Z,100689.41
2022-10-22T13:36:05.640Z,100687.97
2022-10-22T13:38:33.442Z,100702.31
2022-10-22T13:41:03.315Z,100702.59
2022-10-22T13:43:59.778Z,100631.28
2022-10-22T13:46:29.492Z,100718.84
2022-10-22T13:48:58.839Z,100713.19
2022-10-22T13:51:32.068Z,100723.25
2022-10-22T13:54:00.511Z,100726.19
2022-10-22T13:56:29.725Z,100700.00
2022-10-22T13:58:57.560Z,100739.31
2022-10-22T14:01:27.691Z,100732.88
2022-10-22T14:03:58.527Z,100721.28
2022-10-22T14:06:32.759Z,100707.88
2022-10-22T14:09:03.119Z,100735.50
2022-10-22T14:11:32.749Z,100737.72
2022-10-22T14:14:00.892Z,100737.78
2022-10-22T14:16:31.261Z,100740.94
2022-10-22T14:19:00.379Z,100744.63
2022-10-22T14:21:31.190Z,100747.75
2022-10-22T14:23:58.863Z,100751.31
2022-10-22T14:26:31.295Z,100724.50
2022-10-22T14:29:15.963Z,100742.78
2022-10-22T14:31:45.016Z,100690.09
2022-10-22T14:34:14.384Z,100743.22
2022-10-22T14:36:44.024Z,100740.19
2022-10-22T14:39:12.048Z,100732.22
2022-10-22T14:41:39.874Z,100721.97
2022-10-22T14:44:12.773Z,100744.75
2022-10-22T14:46:42.656Z,100715.56
2022-10-22T14:49:10.391Z,100746.38
2022-10-22T14:51:38.122Z,100752.97
2022-10-22T14:54:06.036Z,100739.88
2022-10-22T14:56:33.979Z,100739.50
2022-10-22T14:59:01.741Z,100728.66
2022-10-22T15:01:30.868Z,100752.56
2022-10-22T15:03:58.534Z,100754.06
2022-10-22T15:06:26.240Z,100750.97
2022-10-22T15:08:53.991Z,100753.97
2022-10-22T15:11:22.174Z,100753.97
2022-10-22T15:13:50.005Z,100760.97
2022-10-22T15:16:18.313Z,100753.84
2022-10-22T15:18:47.581Z,100761.38
2022-10-22T15:21:17.239Z,100762.66
2022-10-22T15:23:45.037Z,100767.97
2022-10-22T15:26:13.919Z,100765.34
2022-10-22T15:28:42.301Z,100773.78
2022-10-22T15:31:13.087Z,100769.81
2022-10-22T15:33:42.304Z,100774.59
2022-10-22T15:36:13.143Z,100784.41
2022-10-22T15:38:41.282Z,100784.91
2022-10-22T15:41:12.358Z,100781.78
2022-10-22T15:43:40.215Z,100775.59
2022-10-22T15:46:13.889Z,100777.59
2022-10-22T15:48:42.005Z,100756.22
2022-10-22T15:51:13.918Z,100779.72
2022-10-22T15:53:42.465Z,100768.97
2022-10-22T15:56:11.701Z,100784.31
2022-10-22T15:58:40.840Z,100795.94
2022-10-22T16:01:10.511Z,100799.34
2022-10-22T16:03:38.848Z,100797.66
2022-10-22T16:06:09.157Z,100792.66
2022-10-22T16:08:38.717Z,100801.19
2022-10-22T16:11:06.837Z,100801.19
2022-10-22T16:13:36.828Z,100797.31
2022-10-22T16:16:07.625Z,100800.72
2022-10-22T16:18:35.345Z,100804.56
2022-10-22T16:21:03.014Z,100787.41
2022-10-22T16:23:31.005Z,100820.03
2022-10-22T16:26:02.501Z,100818.47
2022-10-22T16:28:30.448Z,100820.31
2022-10-22T16:31:02.020Z,100827.41
2022-10-22T16:33:39.160Z,100829.50
2022-10-22T16:36:11.954Z,100831.72
2022-10-22T16:38:39.721Z,100837.00
2022-10-22T16:41:10.301Z,100823.91
2022-10-22T16:43:38.385Z,100824.09
2022-10-22T16:46:06.959Z,100832.72
2022-10-22T16:48:34.726Z,100779.22
2022-10-22T16:51:07.550Z,100826.25
2022-10-22T16:56:03.194Z,100835.13
2022-10-22T16:58:32.289Z,100843.25
2022-10-22T17:01:00.073Z,100841.41
2022-10-22T17:03:28.449Z,100861.56
2022-10-22T17:05:59.271Z,100864.22
2022-10-22T17:08:27.022Z,100856.75
2022-10-22T17:10:54.788Z,100871.47
2022-10-22T17:13:22.749Z,100865.53
2022-10-22T17:15:51.853Z,100871.59
2022-10-22T17:18:19.577Z,100863.28
2022-10-22T17:20:47.270Z,100875.38
2022-10-22T17:23:14.947Z,100880.50
2022-10-22T17:25:44.220Z,100823.44
2022-10-22T17:28:12.561Z,100892.13
2022-10-22T17:30:41.231Z,100890.53
2022-10-22T17:33:10.716Z,100871.03
2022-10-22T17:35:42.944Z,100894.13
2022-10-22T17:38:10.690Z,100870.97
2022-10-22T17:40:39.060Z,100903.66
2022-10-22T17:43:06.803Z,100900.97
2022-10-22T17:45:34.539Z,100828.56
2022-10-22T17:48:02.482Z,100914.19
2022-10-22T17:50:31.536Z,100915.84
2022-10-22T17:52:59.282Z,100909.84
2022-10-22T17:55:26.954Z,100914.00
2022-10-22T17:57:54.628Z,100921.19
2022-10-22T18:00:23.560Z,100924.75
2022-10-22T18:02:51.264Z,100917.72
2022-10-22T18:05:19.000Z,100919.47
2022-10-22T18:07:48.068Z,100930.84
2022-10-22T18:10:15.811Z,100925.59
2022-10-22T18:12:43.824Z,100922.22
2022-10-22T18:15:11.908Z,100918.97
2022-10-22T18:17:40.197Z,100928.50
2022-10-22T18:20:09.130Z,100929.19
2022-10-22T18:22:37.129Z,100928.16
2022-10-22T18:25:07.308Z,100934.28
2022-10-22T18:27:35.271Z,100932.63
2022-10-22T18:30:03.038Z,100939.66
2022-10-22T18:32:32.289Z,100918.91
2022-10-22T18:35:00.003Z,100923.25
2022-10-22T18:37:27.694Z,100937.19
2022-10-22T18:39:55.375Z,100937.44
2022-10-22T18:42:26.446Z,100928.06
2022-10-22T18:44:56.856Z,100941.75
2022-10-22T18:47:24.690Z,100944.38
2022-10-22T18:49:52.458Z,100932.34
2022-10-22T18:52:20.171Z,100917.78
2022-10-22T18:54:47.885Z,100925.34
2022-10-22T18:57:15.609Z,100934.91
2022-10-22T18:59:44.694Z,100923.66
2022-10-22T19:02:16.043Z,100934.13
2022-10-22T19:04:44.196Z,100914.50
2022-10-22T19:07:13.268Z,100941.19
2022-10-22T19:09:41.830Z,100942.00
2022-10-22T19:12:10.085Z,100919.00
2022-10-22T19:14:37.793Z,100842.41
2022-10-22T19:17:06.886Z,100955.28
2022-10-22T19:19:34.594Z,100933.72
2022-10-22T19:22:02.318Z,100958.03
2022-10-22T19:24:30.123Z,100963.22
2022-10-22T19:26:57.884Z,100970.31
2022-10-22T19:29:25.614Z,100972.97
2022-10-22T19:31:53.397Z,100978.31
2022-10-22T19:34:22.571Z,100964.00
2022-10-22T19:36:52.103Z,100977.25
2022-10-22T19:39:20.315Z,100975.44
2022-10-22T19:41:48.212Z,100972.22
2022-10-22T19:44:16.235Z,100979.72
2022-10-22T19:46:44.013Z,100988.31
2022-10-22T19:49:12.314Z,100967.16
2022-10-22T19:51:41.608Z,100999.25
2022-10-22T19:54:15.677Z,100992.47
2022-10-22T19:56:43.364Z,101006.88
2022-10-22T19:59:11.074Z,101009.50
2022-10-22T20:01:39.178Z,101006.84
2022-10-22T20:04:06.949Z,101004.97
2022-10-22T20:06:34.728Z,101011.22
2022-10-22T20:09:03.824Z,101011.13
2022-10-22T20:11:31.615Z,101002.53
2022-10-22T20:13:59.906Z,100986.41
2022-10-22T20:16:30.021Z,101011.22
2022-10-22T20:19:01.226Z,101006.06
2022-10-22T20:21:29.454Z,101017.38
2022-10-22T20:23:58.093Z,101014.59
2022-10-22T20:26:28.823Z,101007.59
2022-10-22T20:28:57.178Z,101018.75
2022-10-22T20:31:28.355Z,100992.16
2022-10-22T20:33:58.774Z,101015.13
2022-10-22T20:36:27.491Z,101002.53
2022-10-22T20:39:00.231Z,101028.25
2022-10-22T20:41:29.715Z,101027.59
2022-10-22T20:43:57.552Z,101031.78
2022-10-22T20:46:27.097Z,101012.94
2022-10-22T20:48:56.350Z,101033.59
2022-10-22T20:51:24.110Z,101033.66
2022-10-22T20:53:52.039Z,101027.69
2022-10-22T20:56:20.367Z,101041.47
2022-10-22T20:58:50.240Z,101041.47
2022-10-22T21:01:21.829Z,101036.28
2022-10-22T21:03:50.025Z,101018.28
2022-10-22T21:06:18.038Z,101048.38
2022-10-22T21:08:45.787Z,101044.06
2022-10-22T21:11:13.590Z,101002.88
2022-10-22T21:13:41.275Z,101040.56
2022-10-22T21:16:12.756Z,101053.75
2022-10-22T21:18:40.761Z,101056.41
2022-10-22T21:21:09.803Z,101043.66
2022-10-22T21:23:38.303Z,101052.16
2022-10-22T21:26:06.659Z,100951.00
2022-10-22T21:28:36.067Z,101047.09
2022-10-22T21:31:04.483Z,101064.41
2022-10-22T21:33:36.683Z,101012.72
2022-10-22T21:36:05.219Z,101053.09
2022-10-22T21:38:33.646Z,101064.34
2022-10-22T21:41:05.551Z,101043.66
2022-10-22T21:43:33.244Z,101056.53
2022-10-22T21:46:07.906Z,101022.25
2022-10-22T21:48:37.931Z,101050.47
2022-10-22T21:51:10.516Z,101034.34
2022-10-22T21:53:38.459Z,101048.19
2022-10-22T21:56:07.286Z,101039.59
2022-10-22T21:58:35.782Z,101017.41
2022-10-22T22:01:03.935Z,101051.69
2022-10-22T22:03:31.760Z,101058.97
2022-10-22T22:06:02.319Z,101029.34
2022-10-22T22:08:30.036Z,101004.66
2022-10-22T22:11:03.147Z,101056.19
2022-10-22T22:13:31.213Z,101063.25
2022-10-22T22:16:02.861Z,101060.66
2022-10-22T22:18:31.137Z,101057.38
2022-10-22T22:21:01.466Z,101059.03
2022-10-22T22:23:29.157Z,101054.69
2022-10-22T22:26:00.080Z,101071.34
2022-10-22T22:28:28.448Z,101053.06
2022-10-22T22:30:56.814Z,101055.69
2022-10-22T22:33:24.563Z,101050.53
2022-10-22T22:35:52.314Z,101056.78
2022-10-22T22:38:21.409Z,101047.31
2022-10-22T22:40:49.078Z,101049.25
2022-10-22T22:43:16.811Z,101057.34
2022-10-22T22:45:44.458Z,101054.03
2022-10-22T22:48:12.146Z,100968.16
2022-10-22T22:50:39.827Z,101046.97
2022-10-22T22:53:07.485Z,101050.50
2022-10-22T22:55:36.655Z,101045.44
2022-10-22T22:58:04.395Z,101048.97
2022-10-22T23:00:32.124Z,101043.00
2022-10-22T23:02:59.821Z,101043.94
2022-10-22T23:05:27.510Z,101039.81
2022-10-22T23:07:55.166Z,101033.13
2022-10-22T23:10:22.944Z,101035.88
2022-10-22T23:12:51.981Z,101038.66
2022-10-22T23:15:19.683Z,101043.00
2022-10-22T23:17:47.370Z,101044.72
2022-10-22T23:20:15.067Z,101037.81
2022-10-22T23:22:43.030Z,101048.31
2022-10-22T23:25:11.106Z,101044.88
2022-10-22T23:27:38.852Z,101041.47
2022-10-22T23:30:09.821Z,101045.84
2022-10-22T23:32:37.534Z,101036.31
2022-10-22T23:35:05.754Z,101038.03
2022-10-22T23:37:33.458Z,101044.31
2022-10-22T23:40:01.126Z,101045.25
2022-10-22T23:42:28.836Z,101040.91
2022-10-22T23:44:56.534Z,101040.00
2022-10-22T23:47:25.653Z,101046.97
2022-10-22T23:49:53.495Z,101020.50
2022-10-22T23:52:21.217Z,101056.66
2022-10-22T23:54:49.774Z,101056.63
2022-10-22T23:57:17.444Z,101054.81
2022-10-22T23:59:45.101Z,101056.56
